createdAt,value
2023-02-25T00:00:17.858Z,18.60
2023-02-25T00:05:41.657Z,17.80
2023-02-25T00:11:00.912Z,23.30
2023-02-25T00:16:05.027Z,21.80
2023-02-25T00:21:09.976Z,15.50
2023-02-25T00:26:19.211Z,16.30
2023-02-25T00:31:24.538Z,17.70
2023-02-25T00:36:28.333Z,16.80
2023-02-25T00:41:31.650Z,16.60
2023-02-25T00:46:36.953Z,18.40
2023-02-25T00:51:40.166Z,16.10
2023-02-25T00:56:43.328Z,17.70
2023-02-25T01:01:46.508Z,17.00
2023-02-25T01:06:56.848Z,15.50
2023-02-25T01:12:00.444Z,15.20
2023-02-25T01:17:04.107Z,15.40
2023-02-25T01:22:07.981Z,14.40
2023-02-25T01:27:15.476Z,13.20
2023-02-25T01:32:18.935Z,15.20
2023-02-25T01:37:22.128Z,16.10
2023-02-25T01:42:25.230Z,19.10
2023-02-25T01:47:31.021Z,14.80
2023-02-25T01:52:34.197Z,15.50
2023-02-25T01:57:37.500Z,13.60
2023-02-25T02:02:41.418Z,14.30
2023-02-25T02:07:47.369Z,11.30
2023-02-25T02:12:50.535Z,13.00
2023-02-25T02:17:53.693Z,13.80
2023-02-25T02:23:05.917Z,12.40
2023-02-25T02:28:15.078Z,11.00
2023-02-25T02:33:21.046Z,12.10
2023-02-25T02:38:27.328Z,11.70
2023-02-25T02:43:39.784Z,13.50
2023-02-25T02:48:46.026Z,12.10
2023-02-25T02:54:00.281Z,12.30
2023-02-25T02:59:09.648Z,17.60
2023-02-25T03:04:17.538Z,11.70
2023-02-25T03:09:47.109Z,16.50
2023-02-25T03:14:50.437Z,14.20
2023-02-25T03:20:35.608Z,12.00
2023-02-25T03:25:48.002Z,13.20
2023-02-25T03:30:54.052Z,12.50
2023-02-25T03:35:58.552Z,11.70
2023-02-25T03:41:03.159Z,9.10
2023-02-25T03:46:06.968Z,11.90
2023-02-25T03:51:10.572Z,11.40
2023-02-25T03:56:13.881Z,11.00
2023-02-25T04:01:22.027Z,11.40
2023-02-25T04:06:25.564Z,11.10
2023-02-25T04:11:28.923Z,11.30
2023-02-25T04:16:32.191Z,10.60
2023-02-25T04:21:36.748Z,11.00
2023-02-25T04:26:39.868Z,12.20
2023-02-25T04:31:43.299Z,11.90
2023-02-25T04:36:47.262Z,12.80
2023-02-25T04:41:50.464Z,11.10
2023-02-25T04:46:53.626Z,13.80
2023-02-25T04:51:57.072Z,10.60
2023-02-25T04:57:00.180Z,12.60
2023-02-25T05:02:04.204Z,13.50
2023-02-25T05:07:07.493Z,12.50
2023-02-25T05:12:10.989Z,12.70
2023-02-25T05:17:16.074Z,10.30
2023-02-25T05:22:19.209Z,10.30
2023-02-25T05:27:22.488Z,10.70
2023-02-25T05:32:26.038Z,12.80
2023-02-25T05:37:33.449Z,14.20
2023-02-25T05:42:37.781Z,11.50
2023-02-25T05:47:41.084Z,14.00
2023-02-25T05:52:44.203Z,17.40
2023-02-25T05:57:50.339Z,15.50
2023-02-25T06:02:56.408Z,17.80
2023-02-25T06:08:00.164Z,14.20
2023-02-25T06:13:03.361Z,11.90
2023-02-25T06:18:12.101Z,15.50
2023-02-25T06:23:15.402Z,16.80
2023-02-25T06:28:19.911Z,12.30
2023-02-25T06:33:23.498Z,12.50
2023-02-25T06:38:27.133Z,15.10
2023-02-25T06:43:32.562Z,14.10
2023-02-25T06:48:36.177Z,16.30
2023-02-25T06:53:40.248Z,20.50
2023-02-25T06:58:43.554Z,15.40
2023-02-25T07:03:46.662Z,19.90
2023-02-25T07:08:50.369Z,16.30
2023-02-25T07:13:59.329Z,20.40
2023-02-25T07:19:07.473Z,19.60
2023-02-25T07:24:12.874Z,20.20
2023-02-25T07:29:21.155Z,21.10
2023-02-25T07:34:29.424Z,27.20
2023-02-25T07:39:37.014Z,21.40
2023-02-25T07:44:44.402Z,18.90
2023-02-25T07:49:52.186Z,22.90
2023-02-25T07:54:55.752Z,20.60
2023-02-25T07:59:59.694Z,29.40
2023-02-25T08:05:04.731Z,19.40
2023-02-25T08:10:08.913Z,19.00
2023-02-25T08:15:19.410Z,21.10
2023-02-25T08:20:24.038Z,23.40
2023-02-25T08:25:27.833Z,20.70
2023-02-25T08:30:33.370Z,17.80
2023-02-25T08:35:38.155Z,17.10
2023-02-25T08:40:52.545Z,17.60
2023-02-25T08:45:57.165Z,16.80
2023-02-25T08:51:05.917Z,22.90
2023-02-25T08:56:11.000Z,23.90
2023-02-25T09:01:19.337Z,22.50
2023-02-25T09:06:52.427Z,16.10
2023-02-25T09:11:56.430Z,15.60
2023-02-25T09:17:09.772Z,21.80
2023-02-25T09:22:16.536Z,22.10
2023-02-25T09:27:21.926Z,19.30
2023-02-25T09:32:26.302Z,19.80
2023-02-25T09:37:34.878Z,19.00
2023-02-25T09:48:52.469Z,15.00
2023-02-25T09:54:23.153Z,19.10
2023-02-25T09:59:50.652Z,18.20
2023-02-25T10:05:06.303Z,16.50
2023-02-25T10:10:53.868Z,17.60
2023-02-25T10:34:49.243Z,12.10
2023-02-25T11:16:38.176Z,7.20
2023-02-25T11:21:59.185Z,4.90
2023-02-25T11:27:45.457Z,5.60
2023-02-25T11:33:07.899Z,6.90
2023-02-25T11:48:15.368Z,6.90
2023-02-25T12:19:40.602Z,7.40
2023-02-25T12:26:50.469Z,6.30
2023-02-25T12:38:05.681Z,13.00
2023-02-25T12:43:25.930Z,8.60
2023-02-25T12:48:30.037Z,8.30
2023-02-25T12:53:39.602Z,9.30
2023-02-25T12:59:01.597Z,9.70
2023-02-25T13:04:22.673Z,9.20
2023-02-25T13:09:39.647Z,8.10
2023-02-25T13:15:03.751Z,8.40
2023-02-25T13:20:32.460Z,6.10
2023-02-25T13:26:02.701Z,6.40
2023-02-25T13:31:36.250Z,7.70
2023-02-25T13:36:51.414Z,7.10
2023-02-25T13:42:08.360Z,6.60
2023-02-25T13:47:18.613Z,6.70
2023-02-25T13:52:36.725Z,8.20
2023-02-25T13:57:50.847Z,7.80
2023-02-25T14:03:11.055Z,7.80
2023-02-25T14:08:28.397Z,7.60
2023-02-25T14:13:31.628Z,6.60
2023-02-25T14:18:54.287Z,7.20
2023-02-25T14:24:05.078Z,8.00
2023-02-25T14:29:18.686Z,8.40
2023-02-25T14:34:47.575Z,9.80
2023-02-25T14:40:02.859Z,8.20
2023-02-25T14:45:29.277Z,7.60
2023-02-25T14:50:59.414Z,8.00
2023-02-25T14:56:28.301Z,8.50
2023-02-25T15:02:23.611Z,7.00
2023-02-25T15:08:03.801Z,7.10
2023-02-25T15:13:07.717Z,5.90
2023-02-25T15:24:02.443Z,3.40
2023-02-25T15:29:41.493Z,4.00
2023-02-25T15:34:59.846Z,7.10
2023-02-25T15:40:15.437Z,9.40
2023-02-25T15:45:33.975Z,10.10
2023-02-25T15:50:41.606Z,7.60
2023-02-25T15:56:13.313Z,4.30
2023-02-25T16:01:33.888Z,6.50
2023-02-25T16:09:00.160Z,4.70
2023-02-25T16:20:55.773Z,2.10
2023-02-25T16:26:49.016Z,4.70
2023-02-25T16:32:09.582Z,3.90
2023-02-25T16:37:27.625Z,4.10
2023-02-25T16:43:05.987Z,5.20
2023-02-25T16:48:35.308Z,7.90
2023-02-25T16:53:50.309Z,6.70
2023-02-25T16:59:22.777Z,3.70
2023-02-25T17:04:41.386Z,8.60
2023-02-25T17:09:53.931Z,8.40
2023-02-25T17:15:02.533Z,9.40
2023-02-25T17:26:20.311Z,8.40
2023-02-25T17:32:00.628Z,8.80
2023-02-25T17:44:11.141Z,6.00
2023-02-25T17:49:32.889Z,6.40
2023-02-25T17:55:06.039Z,8.60
2023-02-25T18:00:28.158Z,9.40
2023-02-25T18:06:01.049Z,6.30
2023-02-25T18:11:22.038Z,5.50
2023-02-25T18:16:37.443Z,7.60
2023-02-25T18:21:48.245Z,5.60
2023-02-25T18:27:20.645Z,6.90
2023-02-25T18:32:24.140Z,8.30
2023-02-25T18:37:31.555Z,6.40
2023-02-25T18:42:34.036Z,7.10
2023-02-25T18:47:41.558Z,6.50
2023-02-25T18:52:47.750Z,7.10
2023-02-25T18:58:11.394Z,7.40
2023-02-25T19:03:23.074Z,5.40
2023-02-25T19:08:26.591Z,5.50
2023-02-25T19:13:39.303Z,8.20
2023-02-25T19:18:50.935Z,6.90
2023-02-25T19:23:55.131Z,5.40
2023-02-25T19:28:57.825Z,7.40
2023-02-25T19:34:01.194Z,4.80
2023-02-25T19:39:09.623Z,6.70
2023-02-25T19:44:11.992Z,5.50
2023-02-25T19:49:14.849Z,3.80
2023-02-25T19:54:20.064Z,8.10
2023-02-25T19:59:25.916Z,3.50
2023-02-25T20:04:35.212Z,6.30
2023-02-25T20:09:42.525Z,7.00
2023-02-25T20:14:44.664Z,4.20
2023-02-25T20:19:47.561Z,7.20
2023-02-25T20:24:51.098Z,5.30
2023-02-25T20:29:54.020Z,5.30
2023-02-25T20:34:57.632Z,3.60
2023-02-25T20:40:00.511Z,8.60
2023-02-25T20:45:03.762Z,5.90
2023-02-25T20:50:07.961Z,8.00
2023-02-25T20:55:10.810Z,6.60
2023-02-25T21:00:16.452Z,5.60
2023-02-25T21:05:18.800Z,4.30
2023-02-25T21:10:21.881Z,5.90
2023-02-25T21:15:24.188Z,4.70
2023-02-25T21:20:27.347Z,4.20
2023-02-25T21:25:32.326Z,2.60
2023-02-25T21:30:34.549Z,5.10
2023-02-25T21:35:37.487Z,3.90
2023-02-25T21:40:42.738Z,5.20
2023-02-25T21:45:59.330Z,6.30
2023-02-25T21:51:02.925Z,5.90
2023-02-25T21:56:12.807Z,7.40
2023-02-25T22:01:18.971Z,5.60
2023-02-25T22:06:24.908Z,6.10
2023-02-25T22:11:34.517Z,6.30
2023-02-25T22:16:40.659Z,7.10
2023-02-25T22:21:43.758Z,4.10
2023-02-25T22:26:47.879Z,4.40
2023-02-25T22:31:51.284Z,6.50
2023-02-25T22:36:54.155Z,4.20
2023-02-25T22:41:57.081Z,5.20
2023-02-25T22:46:59.607Z,3.90
2023-02-25T22:52:03.047Z,4.20
2023-02-25T22:57:05.183Z,5.50
2023-02-25T23:02:10.709Z,6.00
2023-02-25T23:07:12.755Z,3.20
2023-02-25T23:12:16.385Z,2.50
2023-02-25T23:17:19.103Z,3.00
2023-02-25T23:22:25.601Z,3.30
2023-02-25T23:27:31.382Z,3.00
2023-02-25T23:32:33.621Z,4.90
2023-02-25T23:37:36.071Z,3.10
2023-02-25T23:42:39.816Z,2.40
2023-02-25T23:47:43.003Z,2.40
2023-02-25T23:52:46.748Z,3.60
2023-02-25T23:57:48.894Z,2.90
